Weather at Austin Bergstrom International Airport

Public forecast

Using degrees Fahrenheit for public forecast. Weather courtesy of forecast.io.

Current aviation weather report (METAR) for Austin Bergstrom International Airport

Retrieved 2022/01/28 03:53 UTC (38 minutes ago):

KAUS 280353Z 03005KT 10SM OVC043 13/05 A3027 RMK AO2 SLP251 T01330050

Aviation forecast (TAF) for Austin Bergstrom International Airport

Retrieved 2022-01-28 00:27 UTC (4 hours ago):

TAF KAUS 272325Z 2800/2906 05006KT P6SM OVC035 FM280700 01013KT P6SM OVC050 FM281600 36016G26KT P6SM SCT250 FM290000 36006KT P6SM SKC